Ontario Center, New York
Current Conditions -  °F | °C
As of 11:54 PM on Friday 21 Nov 2014 (Local Time) from KROC Reporting Station
Overcast Overcast  
Wind Chill: 14°   Ceiling: 2900
Heat Index: 25°   Visibility: 10mi
Dew Point: 14°   Wind: 12mph
Humidity: 63%   Direction: 210°SSW
Pressure: 30.38"   Gusts: NA
Location:  43.23°N, 77.31°W
Report Text: KROC 220454Z 21010KT 10SM OVC029 M04/M10 A3038 RMK AO2 SLP299 T10391100 410171072
Loading
Personal Weather Stations






























Interactive Weather Map New forecast layout! Learn more

10-Day Weather Forecast

Advertisements
Track Severe Weather on mobile